sensor_id;sensor_type;location;lat;lon;timestamp;temperature;humidity
10662;DHT22;5379;51.034;7.006;2023-07-09T04:33:45;26.00;99.90
10662;DHT22;5379;51.034;7.006;2023-07-09T04:36:12;26.00;99.90
10662;DHT22;5379;51.034;7.006;2023-07-09T04:38:39;26.00;99.90
10662;DHT22;5379;51.034;7.006;2023-07-09T04:41:06;26.00;99.90
10662;DHT22;5379;51.034;7.006;2023-07-09T04:43:33;26.00;99.90
10662;DHT22;5379;51.034;7.006;2023-07-09T04:46:00;26.00;99.90
10662;DHT22;5379;51.034;7.006;2023-07-09T04:48:29;26.00;99.90
10662;DHT22;5379;51.034;7.006;2023-07-09T04:53:25;26.30;99.90
10662;DHT22;5379;51.034;7.006;2023-07-09T04:55:52;26.80;99.90
10662;DHT22;5379;51.034;7.006;2023-07-09T04:58:19;26.90;99.50
10662;DHT22;5379;51.034;7.006;2023-07-09T05:00:46;26.80;99.80
10662;DHT22;5379;51.034;7.006;2023-07-09T05:03:13;26.70;99.70
10662;DHT22;5379;51.034;7.006;2023-07-09T05:05:44;26.60;99.90
10662;DHT22;5379;51.034;7.006;2023-07-09T05:08:11;26.70;99.90
10662;DHT22;5379;51.034;7.006;2023-07-09T05:10:41;26.70;99.40
10662;DHT22;5379;51.034;7.006;2023-07-09T05:13:08;26.70;99.90
10662;DHT22;5379;51.034;7.006;2023-07-09T05:15:35;26.80;99.90
10662;DHT22;5379;51.034;7.006;2023-07-09T05:18:02;26.80;99.90
10662;DHT22;5379;51.034;7.006;2023-07-09T05:20:29;27.00;99.50
10662;DHT22;5379;51.034;7.006;2023-07-09T05:22:57;26.90;99.70
10662;DHT22;5379;51.034;7.006;2023-07-09T05:25:24;27.30;99.40
10662;DHT22;5379;51.034;7.006;2023-07-09T05:27:51;27.10;99.50
10662;DHT22;5379;51.034;7.006;2023-07-09T05:30:18;27.30;99.20
10662;DHT22;5379;51.034;7.006;2023-07-09T05:32:46;27.30;99.30
10662;DHT22;5379;51.034;7.006;2023-07-09T05:35:14;27.30;99.40
10662;DHT22;5379;51.034;7.006;2023-07-09T05:37:41;27.70;99.60
10662;DHT22;5379;51.034;7.006;2023-07-09T05:40:09;27.60;99.90
10662;DHT22;5379;51.034;7.006;2023-07-09T05:42:36;27.90;99.30
10662;DHT22;5379;51.034;7.006;2023-07-09T05:45:04;27.90;99.20
10662;DHT22;5379;51.034;7.006;2023-07-09T05:47:31;28.10;98.90
10662;DHT22;5379;51.034;7.006;2023-07-09T05:49:58;28.30;98.70
10662;DHT22;5379;51.034;7.006;2023-07-09T05:52:25;28.40;98.80
10662;DHT22;5379;51.034;7.006;2023-07-09T05:54:54;28.60;98.30
10662;DHT22;5379;51.034;7.006;2023-07-09T05:57:22;28.70;98.20
10662;DHT22;5379;51.034;7.006;2023-07-09T05:59:49;28.70;98.30
10662;DHT22;5379;51.034;7.006;2023-07-09T06:02:18;28.80;98.30
10662;DHT22;5379;51.034;7.006;2023-07-09T06:04:46;28.90;97.80
10662;DHT22;5379;51.034;7.006;2023-07-09T06:07:15;29.10;97.20
10662;DHT22;5379;51.034;7.006;2023-07-09T06:09:44;28.90;97.70
10662;DHT22;5379;51.034;7.006;2023-07-09T06:12:11;29.20;97.10
10662;DHT22;5379;51.034;7.006;2023-07-09T06:14:40;29.30;96.70
10662;DHT22;5379;51.034;7.006;2023-07-09T06:17:07;29.30;96.80
10662;DHT22;5379;51.034;7.006;2023-07-09T06:19:34;29.20;96.40
10662;DHT22;5379;51.034;7.006;2023-07-09T06:22:01;29.10;96.30
10662;DHT22;5379;51.034;7.006;2023-07-09T06:24:28;29.10;96.20
10662;DHT22;5379;51.034;7.006;2023-07-09T06:26:55;29.10;96.30
10662;DHT22;5379;51.034;7.006;2023-07-09T06:29:22;29.10;96.20
10662;DHT22;5379;51.034;7.006;2023-07-09T06:31:51;29.00;96.40
10662;DHT22;5379;51.034;7.006;2023-07-09T06:34:18;29.00;96.30
10662;DHT22;5379;51.034;7.006;2023-07-09T06:36:44;29.00;96.30
10662;DHT22;5379;51.034;7.006;2023-07-09T06:39:11;29.10;96.30
10662;DHT22;5379;51.034;7.006;2023-07-09T06:41:38;29.10;96.30
10662;DHT22;5379;51.034;7.006;2023-07-09T06:44:05;29.10;96.20
10662;DHT22;5379;51.034;7.006;2023-07-09T06:46:33;29.10;96.10
10662;DHT22;5379;51.034;7.006;2023-07-09T06:49:02;28.90;96.80
10662;DHT22;5379;51.034;7.006;2023-07-09T06:51:31;28.80;96.00
10662;DHT22;5379;51.034;7.006;2023-07-09T06:53:57;28.90;96.50
10662;DHT22;5379;51.034;7.006;2023-07-09T06:56:24;28.80;96.30
10662;DHT22;5379;51.034;7.006;2023-07-09T06:58:51;28.70;96.30
10662;DHT22;5379;51.034;7.006;2023-07-09T07:01:18;28.50;96.50
10662;DHT22;5379;51.034;7.006;2023-07-09T07:03:45;28.60;96.50
10662;DHT22;5379;51.034;7.006;2023-07-09T07:06:14;28.50;96.40
10662;DHT22;5379;51.034;7.006;2023-07-09T07:08:42;28.30;96.70
10662;DHT22;5379;51.034;7.006;2023-07-09T07:11:08;28.20;96.60
10662;DHT22;5379;51.034;7.006;2023-07-09T07:13:37;28.00;97.00
10662;DHT22;5379;51.034;7.006;2023-07-09T07:16:05;27.90;97.10
10662;DHT22;5379;51.034;7.006;2023-07-09T07:18:33;27.90;97.20
10662;DHT22;5379;51.034;7.006;2023-07-09T07:21:00;27.90;97.10
10662;DHT22;5379;51.034;7.006;2023-07-09T07:23:28;27.70;97.00
10662;DHT22;5379;51.034;7.006;2023-07-09T07:25:55;27.60;97.30
10662;DHT22;5379;51.034;7.006;2023-07-09T07:28:22;27.60;97.20
10662;DHT22;5379;51.034;7.006;2023-07-09T07:30:58;27.70;97.10
10662;DHT22;5379;51.034;7.006;2023-07-09T07:33:25;27.70;97.40
10662;DHT22;5379;51.034;7.006;2023-07-09T07:35:52;27.80;97.40
10662;DHT22;5379;51.034;7.006;2023-07-09T07:40:48;27.70;97.10
10662;DHT22;5379;51.034;7.006;2023-07-09T07:43:16;27.80;97.10
10662;DHT22;5379;51.034;7.006;2023-07-09T07:45:44;27.80;97.20
10662;DHT22;5379;51.034;7.006;2023-07-09T07:48:11;27.60;97.10
10662;DHT22;5379;51.034;7.006;2023-07-09T07:50:40;27.40;97.10
10662;DHT22;5379;51.034;7.006;2023-07-09T07:53:07;27.30;97.30
10662;DHT22;5379;51.034;7.006;2023-07-09T07:58:04;27.20;97.80
10662;DHT22;5379;51.034;7.006;2023-07-09T08:00:31;26.40;98.00
10662;DHT22;5379;51.034;7.006;2023-07-09T08:02:58;26.30;98.40
10662;DHT22;5379;51.034;7.006;2023-07-09T08:05:25;26.00;98.90
10662;DHT22;5379;51.034;7.006;2023-07-09T08:10:19;26.60;98.20
10662;DHT22;5379;51.034;7.006;2023-07-09T08:12:46;26.70;98.40
10662;DHT22;5379;51.034;7.006;2023-07-09T08:15:15;26.80;98.60
10662;DHT22;5379;51.034;7.006;2023-07-09T08:17:43;26.70;98.20
10662;DHT22;5379;51.034;7.006;2023-07-09T08:20:10;26.70;98.20
10662;DHT22;5379;51.034;7.006;2023-07-09T08:22:37;26.70;98.20
10662;DHT22;5379;51.034;7.006;2023-07-09T08:25:06;26.70;98.20
10662;DHT22;5379;51.034;7.006;2023-07-09T08:27:33;26.50;98.30
10662;DHT22;5379;51.034;7.006;2023-07-09T08:30:00;26.40;98.40
10662;DHT22;5379;51.034;7.006;2023-07-09T08:32:28;26.30;98.50
10662;DHT22;5379;51.034;7.006;2023-07-09T08:34:55;26.20;98.80
10662;DHT22;5379;51.034;7.006;2023-07-09T08:37:22;26.10;98.80
10662;DHT22;5379;51.034;7.006;2023-07-09T08:39:49;25.80;99.00
10662;DHT22;5379;51.034;7.006;2023-07-09T08:42:21;25.90;99.00
10662;DHT22;5379;51.034;7.006;2023-07-09T08:45:03;25.90;98.90
10662;DHT22;5379;51.034;7.006;2023-07-09T08:47:42;25.80;99.10
10662;DHT22;5379;51.034;7.006;2023-07-09T08:50:14;25.70;99.10
10662;DHT22;5379;51.034;7.006;2023-07-09T08:52:43;25.70;99.10
10662;DHT22;5379;51.034;7.006;2023-07-09T08:55:12;25.70;99.30
10662;DHT22;5379;51.034;7.006;2023-07-09T08:57:43;25.60;99.40
10662;DHT22;5379;51.034;7.006;2023-07-09T09:00:15;25.70;99.30
10662;DHT22;5379;51.034;7.006;2023-07-09T09:02:50;25.60;99.20
10662;DHT22;5379;51.034;7.006;2023-07-09T09:05:19;25.60;99.40
10662;DHT22;5379;51.034;7.006;2023-07-09T09:07:51;25.60;99.90
10662;DHT22;5379;51.034;7.006;2023-07-09T09:10:33;25.50;99.50
10662;DHT22;5379;51.034;7.006;2023-07-09T09:13:08;25.50;99.60
10662;DHT22;5379;51.034;7.006;2023-07-09T09:15:37;25.60;99.50
10662;DHT22;5379;51.034;7.006;2023-07-09T09:18:21;25.60;99.40
10662;DHT22;5379;51.034;7.006;2023-07-09T09:20:54;25.40;99.60
10662;DHT22;5379;51.034;7.006;2023-07-09T09:23:28;25.40;99.70
10662;DHT22;5379;51.034;7.006;2023-07-09T09:25:59;25.20;99.90
10662;DHT22;5379;51.034;7.006;2023-07-09T09:28:27;25.10;99.90
10662;DHT22;5379;51.034;7.006;2023-07-09T09:30:54;25.10;99.90
10662;DHT22;5379;51.034;7.006;2023-07-09T09:33:22;25.10;99.90
10662;DHT22;5379;51.034;7.006;2023-07-09T09:35:49;25.00;99.90
10662;DHT22;5379;51.034;7.006;2023-07-09T09:38:28;24.90;99.90
10662;DHT22;5379;51.034;7.006;2023-07-09T09:41:00;24.80;99.90
10662;DHT22;5379;51.034;7.006;2023-07-09T09:43:32;24.90;99.90
10662;DHT22;5379;51.034;7.006;2023-07-09T09:45:59;25.10;99.90
10662;DHT22;5379;51.034;7.006;2023-07-09T09:48:31;25.00;99.90
10662;DHT22;5379;51.034;7.006;2023-07-09T09:50:59;25.00;99.90
10662;DHT22;5379;51.034;7.006;2023-07-09T09:53:30;25.00;99.90
10662;DHT22;5379;51.034;7.006;2023-07-09T09:56:04;25.00;99.90
10662;DHT22;5379;51.034;7.006;2023-07-09T09:58:32;25.00;99.90
10662;DHT22;5379;51.034;7.006;2023-07-09T10:01:00;25.00;99.90
10662;DHT22;5379;51.034;7.006;2023-07-09T10:03:35;24.90;99.90
10662;DHT22;5379;51.034;7.006;2023-07-09T10:06:07;24.80;99.90
10662;DHT22;5379;51.034;7.006;2023-07-09T10:08:42;24.90;99.90
10662;DHT22;5379;51.034;7.006;2023-07-09T10:11:21;24.80;99.90
10662;DHT22;5379;51.034;7.006;2023-07-09T10:13:55;24.80;99.90
10662;DHT22;5379;51.034;7.006;2023-07-09T10:16:31;24.80;99.90
10662;DHT22;5379;51.034;7.006;2023-07-09T10:19:12;24.80;99.90
10662;DHT22;5379;51.034;7.006;2023-07-09T10:21:47;24.70;99.90
10662;DHT22;5379;51.034;7.006;2023-07-09T10:24:32;24.80;99.90
10662;DHT22;5379;51.034;7.006;2023-07-09T10:27:08;25.00;99.90
10662;DHT22;5379;51.034;7.006;2023-07-09T10:29:51;25.20;99.90
10662;DHT22;5379;51.034;7.006;2023-07-09T10:32:31;26.10;99.90
10662;DHT22;5379;51.034;7.006;2023-07-09T10:35:07;27.00;98.80
10662;DHT22;5379;51.034;7.006;2023-07-09T10:37:51;27.30;98.30
10662;DHT22;5379;51.034;7.006;2023-07-09T10:40:35;27.50;98.40
10662;DHT22;5379;51.034;7.006;2023-07-09T10:43:05;27.30;98.60
10662;DHT22;5379;51.034;7.006;2023-07-09T10:45:38;27.00;98.10
10662;DHT22;5379;51.034;7.006;2023-07-09T10:48:09;26.30;98.90
10662;DHT22;5379;51.034;7.006;2023-07-09T10:50:42;25.50;99.40
10662;DHT22;5379;51.034;7.006;2023-07-09T10:53:14;25.50;99.90
10662;DHT22;5379;51.034;7.006;2023-07-09T10:55:50;25.70;99.50
10662;DHT22;5379;51.034;7.006;2023-07-09T10:58:31;25.90;99.30
10662;DHT22;5379;51.034;7.006;2023-07-09T11:01:01;25.80;99.50
10662;DHT22;5379;51.034;7.006;2023-07-09T11:03:37;25.60;99.70
10662;DHT22;5379;51.034;7.006;2023-07-09T11:06:14;25.60;99.70
10662;DHT22;5379;51.034;7.006;2023-07-09T11:08:44;25.70;99.60
10662;DHT22;5379;51.034;7.006;2023-07-09T11:11:27;25.70;99.60
10662;DHT22;5379;51.034;7.006;2023-07-09T11:13:58;25.40;99.80
10662;DHT22;5379;51.034;7.006;2023-07-09T11:16:30;25.50;99.70
10662;DHT22;5379;51.034;7.006;2023-07-09T11:19:01;25.60;99.90
10662;DHT22;5379;51.034;7.006;2023-07-09T11:21:30;25.70;99.70
10662;DHT22;5379;51.034;7.006;2023-07-09T11:23:58;25.70;99.70
10662;DHT22;5379;51.034;7.006;2023-07-09T11:26:27;25.80;99.40
10662;DHT22;5379;51.034;7.006;2023-07-09T11:29:06;26.10;99.50
10662;DHT22;5379;51.034;7.006;2023-07-09T11:31:38;26.50;98.70
10662;DHT22;5379;51.034;7.006;2023-07-09T11:34:09;26.30;98.90
10662;DHT22;5379;51.034;7.006;2023-07-09T11:36:48;26.00;99.20
10662;DHT22;5379;51.034;7.006;2023-07-09T11:39:26;26.20;99.00
10662;DHT22;5379;51.034;7.006;2023-07-09T11:41:54;26.30;98.80
10662;DHT22;5379;51.034;7.006;2023-07-09T11:44:24;25.90;99.20
10662;DHT22;5379;51.034;7.006;2023-07-09T11:47:12;25.80;99.30
10662;DHT22;5379;51.034;7.006;2023-07-09T11:49:48;25.70;99.50
10662;DHT22;5379;51.034;7.006;2023-07-09T11:52:22;25.60;99.50
10662;DHT22;5379;51.034;7.006;2023-07-09T11:54:52;25.50;99.40
10662;DHT22;5379;51.034;7.006;2023-07-09T11:57:20;25.40;99.70
10662;DHT22;5379;51.034;7.006;2023-07-09T11:59:47;25.70;99.60
10662;DHT22;5379;51.034;7.006;2023-07-09T12:02:16;25.50;99.90
10662;DHT22;5379;51.034;7.006;2023-07-09T12:04:44;25.60;99.90
10662;DHT22;5379;51.034;7.006;2023-07-09T12:07:15;25.60;99.60
10662;DHT22;5379;51.034;7.006;2023-07-09T12:09:47;25.70;99.60
10662;DHT22;5379;51.034;7.006;2023-07-09T12:12:20;25.70;99.40
10662;DHT22;5379;51.034;7.006;2023-07-09T12:14:48;25.80;99.60
10662;DHT22;5379;51.034;7.006;2023-07-09T12:17:15;25.70;99.50
10662;DHT22;5379;51.034;7.006;2023-07-09T12:19:42;25.60;99.60
10662;DHT22;5379;51.034;7.006;2023-07-09T12:22:17;25.50;99.70
10662;DHT22;5379;51.034;7.006;2023-07-09T12:24:47;26.20;99.90
10662;DHT22;5379;51.034;7.006;2023-07-09T12:27:19;26.70;98.90
10662;DHT22;5379;51.034;7.006;2023-07-09T12:29:47;26.30;98.80
10662;DHT22;5379;51.034;7.006;2023-07-09T12:32:16;26.40;98.70
10662;DHT22;5379;51.034;7.006;2023-07-09T12:34:47;26.30;98.90
10662;DHT22;5379;51.034;7.006;2023-07-09T12:37:15;26.30;98.90
10662;DHT22;5379;51.034;7.006;2023-07-09T12:39:44;26.00;99.10
10662;DHT22;5379;51.034;7.006;2023-07-09T12:42:16;25.90;99.20
10662;DHT22;5379;51.034;7.006;2023-07-09T12:44:44;25.80;99.30
10662;DHT22;5379;51.034;7.006;2023-07-09T12:47:14;26.10;99.90
10662;DHT22;5379;51.034;7.006;2023-07-09T12:49:42;26.00;99.20
10662;DHT22;5379;51.034;7.006;2023-07-09T12:52:14;25.90;99.30
10662;DHT22;5379;51.034;7.006;2023-07-09T12:54:52;25.90;99.30
10662;DHT22;5379;51.034;7.006;2023-07-09T12:57:21;25.90;99.40
10662;DHT22;5379;51.034;7.006;2023-07-09T12:59:49;25.70;99.40
10662;DHT22;5379;51.034;7.006;2023-07-09T13:02:18;25.70;99.50
10662;DHT22;5379;51.034;7.006;2023-07-09T13:04:46;25.90;99.30
10662;DHT22;5379;51.034;7.006;2023-07-09T13:07:31;25.90;99.40
10662;DHT22;5379;51.034;7.006;2023-07-09T13:10:07;25.90;99.50
10662;DHT22;5379;51.034;7.006;2023-07-09T13:12:40;25.70;99.90
10662;DHT22;5379;51.034;7.006;2023-07-09T13:15:23;25.80;99.60
10662;DHT22;5379;51.034;7.006;2023-07-09T13:17:57;26.00;99.20
10662;DHT22;5379;51.034;7.006;2023-07-09T13:20:25;25.90;99.30
10662;DHT22;5379;51.034;7.006;2023-07-09T13:22:52;26.10;98.80
10662;DHT22;5379;51.034;7.006;2023-07-09T13:25:20;26.40;99.20
10662;DHT22;5379;51.034;7.006;2023-07-09T13:27:48;26.40;98.80
10662;DHT22;5379;51.034;7.006;2023-07-09T13:30:15;26.30;98.90
10662;DHT22;5379;51.034;7.006;2023-07-09T13:32:42;26.40;98.80
10662;DHT22;5379;51.034;7.006;2023-07-09T13:35:14;26.50;98.90
10662;DHT22;5379;51.034;7.006;2023-07-09T13:37:42;26.40;98.90
10662;DHT22;5379;51.034;7.006;2023-07-09T13:40:12;26.50;98.90
10662;DHT22;5379;51.034;7.006;2023-07-09T13:42:41;26.50;99.00
10662;DHT22;5379;51.034;7.006;2023-07-09T13:45:20;26.60;99.10
10662;DHT22;5379;51.034;7.006;2023-07-09T13:47:48;26.60;99.00
10662;DHT22;5379;51.034;7.006;2023-07-09T13:50:16;26.60;99.10
10662;DHT22;5379;51.034;7.006;2023-07-09T13:52:43;26.60;99.10
10662;DHT22;5379;51.034;7.006;2023-07-09T13:55:22;26.60;99.10
10662;DHT22;5379;51.034;7.006;2023-07-09T13:57:51;26.50;99.10
10662;DHT22;5379;51.034;7.006;2023-07-09T14:00:18;26.40;99.30
10662;DHT22;5379;51.034;7.006;2023-07-09T14:02:47;26.30;99.40
10662;DHT22;5379;51.034;7.006;2023-07-09T14:05:15;26.10;99.70
10662;DHT22;5379;51.034;7.006;2023-07-09T14:07:42;25.80;99.80
10662;DHT22;5379;51.034;7.006;2023-07-09T14:10:12;25.40;99.90
10662;DHT22;5379;51.034;7.006;2023-07-09T14:12:44;25.40;99.90
10662;DHT22;5379;51.034;7.006;2023-07-09T14:15:15;25.40;99.90
10662;DHT22;5379;51.034;7.006;2023-07-09T14:17:43;25.40;99.90
10662;DHT22;5379;51.034;7.006;2023-07-09T14:20:12;25.40;99.90
10662;DHT22;5379;51.034;7.006;2023-07-09T14:22:39;25.50;99.90
10662;DHT22;5379;51.034;7.006;2023-07-09T14:25:15;25.30;99.90
10662;DHT22;5379;51.034;7.006;2023-07-09T14:27:42;25.70;99.90
10662;DHT22;5379;51.034;7.006;2023-07-09T14:30:15;26.00;99.90
10662;DHT22;5379;51.034;7.006;2023-07-09T14:32:43;26.50;99.80
10662;DHT22;5379;51.034;7.006;2023-07-09T14:35:15;26.30;99.60
10662;DHT22;5379;51.034;7.006;2023-07-09T14:37:43;25.80;99.90
10662;DHT22;5379;51.034;7.006;2023-07-09T14:40:11;25.10;99.90
10662;DHT22;5379;51.034;7.006;2023-07-09T14:45:17;24.90;99.90
10662;DHT22;5379;51.034;7.006;2023-07-09T14:47:45;25.40;99.90
10662;DHT22;5379;51.034;7.006;2023-07-09T14:52:41;25.70;99.90
10662;DHT22;5379;51.034;7.006;2023-07-09T14:55:13;25.70;99.90
10662;DHT22;5379;51.034;7.006;2023-07-09T14:57:41;26.50;99.90
10662;DHT22;5379;51.034;7.006;2023-07-09T15:00:13;26.90;99.90
10662;DHT22;5379;51.034;7.006;2023-07-09T15:02:43;27.30;99.90
10662;DHT22;5379;51.034;7.006;2023-07-09T15:05:16;27.60;99.90
10662;DHT22;5379;51.034;7.006;2023-07-09T15:07:43;27.70;99.90
10662;DHT22;5379;51.034;7.006;2023-07-09T15:10:15;27.90;99.90
10662;DHT22;5379;51.034;7.006;2023-07-09T15:12:43;28.10;99.90
10662;DHT22;5379;51.034;7.006;2023-07-09T15:15:20;28.00;99.90
10662;DHT22;5379;51.034;7.006;2023-07-09T15:17:48;28.30;99.90
10662;DHT22;5379;51.034;7.006;2023-07-09T15:20:16;28.50;99.90
10662;DHT22;5379;51.034;7.006;2023-07-09T15:22:44;28.80;99.90
10662;DHT22;5379;51.034;7.006;2023-07-09T15:25:15;28.90;99.90
10662;DHT22;5379;51.034;7.006;2023-07-09T15:27:43;28.70;99.90
10662;DHT22;5379;51.034;7.006;2023-07-09T15:30:15;28.70;99.90
10662;DHT22;5379;51.034;7.006;2023-07-09T15:32:43;29.10;97.90
10662;DHT22;5379;51.034;7.006;2023-07-09T15:37:39;28.60;99.90
10662;DHT22;5379;51.034;7.006;2023-07-09T15:40:18;28.70;99.90
10662;DHT22;5379;51.034;7.006;2023-07-09T15:42:49;28.70;99.90
10662;DHT22;5379;51.034;7.006;2023-07-09T15:45:17;28.20;99.90
10662;DHT22;5379;51.034;7.006;2023-07-09T15:47:45;28.20;99.90
10662;DHT22;5379;51.034;7.006;2023-07-09T15:50:18;28.10;99.90
10662;DHT22;5379;51.034;7.006;2023-07-09T15:52:51;28.60;99.90
10662;DHT22;5379;51.034;7.006;2023-07-09T15:55:20;28.50;99.90
10662;DHT22;5379;51.034;7.006;2023-07-09T15:57:50;29.10;99.90
10662;DHT22;5379;51.034;7.006;2023-07-09T16:00:19;29.30;99.90
10662;DHT22;5379;51.034;7.006;2023-07-09T16:02:48;29.50;99.90
10662;DHT22;5379;51.034;7.006;2023-07-09T16:05:22;29.60;99.90
10662;DHT22;5379;51.034;7.006;2023-07-09T16:07:51;29.40;99.90
10662;DHT22;5379;51.034;7.006;2023-07-09T16:10:18;29.40;99.90
10662;DHT22;5379;51.034;7.006;2023-07-09T16:12:46;29.40;99.70
10662;DHT22;5379;51.034;7.006;2023-07-09T16:15:16;29.30;99.90
10662;DHT22;5379;51.034;7.006;2023-07-09T16:17:47;29.30;99.90
10662;DHT22;5379;51.034;7.006;2023-07-09T16:20:16;29.10;99.90
10662;DHT22;5379;51.034;7.006;2023-07-09T16:22:48;29.30;98.00
10662;DHT22;5379;51.034;7.006;2023-07-09T16:25:18;29.40;98.10
10662;DHT22;5379;51.034;7.006;2023-07-09T16:27:46;27.90;99.90
10662;DHT22;5379;51.034;7.006;2023-07-09T16:30:16;28.70;99.90
10662;DHT22;5379;51.034;7.006;2023-07-09T16:32:45;28.80;99.90
10662;DHT22;5379;51.034;7.006;2023-07-09T16:35:13;28.80;99.90
10662;DHT22;5379;51.034;7.006;2023-07-09T16:40:16;28.70;99.90
10662;DHT22;5379;51.034;7.006;2023-07-09T16:42:44;28.40;99.90
10662;DHT22;5379;51.034;7.006;2023-07-09T16:45:16;28.20;99.90
10662;DHT22;5379;51.034;7.006;2023-07-09T16:47:44;28.20;99.90
10662;DHT22;5379;51.034;7.006;2023-07-09T16:50:13;28.10;99.90
10662;DHT22;5379;51.034;7.006;2023-07-09T16:52:42;28.00;99.90
10662;DHT22;5379;51.034;7.006;2023-07-09T16:55:15;28.20;99.50
10662;DHT22;5379;51.034;7.006;2023-07-09T16:57:42;28.20;99.90
10662;DHT22;5379;51.034;7.006;2023-07-09T17:00:22;28.10;99.90
10662;DHT22;5379;51.034;7.006;2023-07-09T17:02:50;28.20;99.90
10662;DHT22;5379;51.034;7.006;2023-07-09T17:05:17;28.50;99.90
10662;DHT22;5379;51.034;7.006;2023-07-09T17:07:44;28.70;99.90
10662;DHT22;5379;51.034;7.006;2023-07-09T17:10:12;28.90;99.90
10662;DHT22;5379;51.034;7.006;2023-07-09T17:12:41;28.90;99.90
10662;DHT22;5379;51.034;7.006;2023-07-09T17:15:19;29.00;99.90
10662;DHT22;5379;51.034;7.006;2023-07-09T17:17:47;29.60;99.90
10662;DHT22;5379;51.034;7.006;2023-07-09T17:20:15;29.70;99.90
10662;DHT22;5379;51.034;7.006;2023-07-09T17:22:43;29.50;99.90
10662;DHT22;5379;51.034;7.006;2023-07-09T17:25:22;29.70;99.90
10662;DHT22;5379;51.034;7.006;2023-07-09T17:27:51;29.90;99.90
10662;DHT22;5379;51.034;7.006;2023-07-09T17:30:18;29.90;99.70
10662;DHT22;5379;51.034;7.006;2023-07-09T17:32:46;29.60;99.90
10662;DHT22;5379;51.034;7.006;2023-07-09T17:35:13;29.60;99.90
10662;DHT22;5379;51.034;7.006;2023-07-09T17:37:44;29.30;99.90
10662;DHT22;5379;51.034;7.006;2023-07-09T17:40:17;29.50;99.90
10662;DHT22;5379;51.034;7.006;2023-07-09T17:42:47;29.90;99.90
10662;DHT22;5379;51.034;7.006;2023-07-09T17:45:16;29.70;99.90
10662;DHT22;5379;51.034;7.006;2023-07-09T17:47:43;30.10;99.10
10662;DHT22;5379;51.034;7.006;2023-07-09T17:50:15;30.20;99.90
10662;DHT22;5379;51.034;7.006;2023-07-09T17:52:42;29.40;99.90
10662;DHT22;5379;51.034;7.006;2023-07-09T17:55:11;29.30;99.90
10662;DHT22;5379;51.034;7.006;2023-07-09T17:57:39;30.00;98.40
10662;DHT22;5379;51.034;7.006;2023-07-09T18:00:18;30.00;98.60
10662;DHT22;5379;51.034;7.006;2023-07-09T18:02:52;30.00;98.30
10662;DHT22;5379;51.034;7.006;2023-07-09T18:05:25;30.10;98.10
10662;DHT22;5379;51.034;7.006;2023-07-09T18:10:22;30.00;98.40
10662;DHT22;5379;51.034;7.006;2023-07-09T18:12:49;30.10;98.90
10662;DHT22;5379;51.034;7.006;2023-07-09T18:15:22;30.10;99.90
10662;DHT22;5379;51.034;7.006;2023-07-09T18:17:51;30.20;97.50
10662;DHT22;5379;51.034;7.006;2023-07-09T18:20:20;30.00;97.50
10662;DHT22;5379;51.034;7.006;2023-07-09T18:22:47;29.70;97.40
10662;DHT22;5379;51.034;7.006;2023-07-09T18:25:14;29.30;98.00
10662;DHT22;5379;51.034;7.006;2023-07-09T18:27:43;28.90;98.00
10662;DHT22;5379;51.034;7.006;2023-07-09T18:30:16;27.90;99.20
10662;DHT22;5379;51.034;7.006;2023-07-09T18:32:45;27.70;99.30
10662;DHT22;5379;51.034;7.006;2023-07-09T18:35:20;28.10;99.50
10662;DHT22;5379;51.034;7.006;2023-07-09T18:37:49;28.70;99.10
10662;DHT22;5379;51.034;7.006;2023-07-09T18:40:18;29.30;97.30
10662;DHT22;5379;51.034;7.006;2023-07-09T18:42:45;29.20;97.90
10662;DHT22;5379;51.034;7.006;2023-07-09T18:45:17;28.70;97.90
10662;DHT22;5379;51.034;7.006;2023-07-09T18:47:46;28.40;98.70
10662;DHT22;5379;51.034;7.006;2023-07-09T18:50:14;28.20;98.70
10662;DHT22;5379;51.034;7.006;2023-07-09T18:52:42;27.90;98.80
10662;DHT22;5379;51.034;7.006;2023-07-09T18:55:16;28.20;98.90
10662;DHT22;5379;51.034;7.006;2023-07-09T18:57:43;28.70;98.60
10662;DHT22;5379;51.034;7.006;2023-07-09T19:00:12;29.10;98.20
10662;DHT22;5379;51.034;7.006;2023-07-09T19:02:41;29.30;99.30
10662;DHT22;5379;51.034;7.006;2023-07-09T19:05:15;29.50;97.70
10662;DHT22;5379;51.034;7.006;2023-07-09T19:10:14;29.60;97.60
10662;DHT22;5379;51.034;7.006;2023-07-09T19:12:46;29.60;97.40
10662;DHT22;5379;51.034;7.006;2023-07-09T19:15:13;29.60;96.90
10662;DHT22;5379;51.034;7.006;2023-07-09T19:17:41;29.40;97.30
10662;DHT22;5379;51.034;7.006;2023-07-09T19:20:21;29.40;97.40
10662;DHT22;5379;51.034;7.006;2023-07-09T19:22:49;29.20;97.40
10662;DHT22;5379;51.034;7.006;2023-07-09T19:25:18;28.90;97.60
10662;DHT22;5379;51.034;7.006;2023-07-09T19:27:46;28.60;99.30
10662;DHT22;5379;51.034;7.006;2023-07-09T19:30:14;28.60;98.20
10662;DHT22;5379;51.034;7.006;2023-07-09T19:32:44;28.30;98.40
10662;DHT22;5379;51.034;7.006;2023-07-09T19:35:17;27.80;98.90
10662;DHT22;5379;51.034;7.006;2023-07-09T19:37:46;27.60;98.90
10662;DHT22;5379;51.034;7.006;2023-07-09T19:40:18;27.80;99.30
10662;DHT22;5379;51.034;7.006;2023-07-09T19:42:46;27.70;98.90
10662;DHT22;5379;51.034;7.006;2023-07-09T19:45:14;27.80;99.30
10662;DHT22;5379;51.034;7.006;2023-07-09T19:47:42;28.30;99.50
10662;DHT22;5379;51.034;7.006;2023-07-09T19:50:20;28.30;98.80
10662;DHT22;5379;51.034;7.006;2023-07-09T19:52:49;28.40;98.00
10662;DHT22;5379;51.034;7.006;2023-07-09T19:55:19;28.00;98.90
10662;DHT22;5379;51.034;7.006;2023-07-09T19:57:47;28.40;98.60
10662;DHT22;5379;51.034;7.006;2023-07-09T20:00:15;28.10;98.80
10662;DHT22;5379;51.034;7.006;2023-07-09T20:02:42;28.80;97.90
10662;DHT22;5379;51.034;7.006;2023-07-09T20:05:13;28.70;97.70
10662;DHT22;5379;51.034;7.006;2023-07-09T20:07:40;28.90;97.90
10662;DHT22;5379;51.034;7.006;2023-07-09T20:10:10;28.90;97.40
10662;DHT22;5379;51.034;7.006;2023-07-09T20:12:37;28.80;99.90
10662;DHT22;5379;51.034;7.006;2023-07-09T20:15:19;29.10;98.20
10662;DHT22;5379;51.034;7.006;2023-07-09T20:17:47;29.50;97.30
10662;DHT22;5379;51.034;7.006;2023-07-09T20:20:15;29.50;97.50
10662;DHT22;5379;51.034;7.006;2023-07-09T20:22:42;29.60;97.50
10662;DHT22;5379;51.034;7.006;2023-07-09T20:25:17;29.50;96.50
10662;DHT22;5379;51.034;7.006;2023-07-09T20:30:13;29.60;99.90
10662;DHT22;5379;51.034;7.006;2023-07-09T20:32:41;29.80;99.90
10662;DHT22;5379;51.034;7.006;2023-07-09T20:35:14;29.90;99.40
10662;DHT22;5379;51.034;7.006;2023-07-09T20:37:42;30.00;98.40
10662;DHT22;5379;51.034;7.006;2023-07-09T20:40:13;30.00;99.10
10662;DHT22;5379;51.034;7.006;2023-07-09T20:42:41;30.00;98.00
10662;DHT22;5379;51.034;7.006;2023-07-09T20:45:17;30.00;99.90
10662;DHT22;5379;51.034;7.006;2023-07-09T20:47:46;29.90;99.90
10662;DHT22;5379;51.034;7.006;2023-07-09T20:50:14;29.50;99.90
10662;DHT22;5379;51.034;7.006;2023-07-09T20:52:42;29.60;99.90
10662;DHT22;5379;51.034;7.006;2023-07-09T20:55:11;29.70;99.90
10662;DHT22;5379;51.034;7.006;2023-07-09T20:57:40;29.80;98.50
10662;DHT22;5379;51.034;7.006;2023-07-09T21:00:13;30.00;99.60
10662;DHT22;5379;51.034;7.006;2023-07-09T21:02:40;29.90;97.50